This is the latest recevied weather packets stored in our database for station/object RK6MF-10. If no packets are shown the sender has not sent any weather packets the latest 10 day(s).
| Time | Temp. | Humidity | Pressure | Rain* | Wind** | Luminosity | Snow |
|---|---|---|---|---|---|---|---|
| 1777820563 | 14.44° C | 39% | 1011.9 hPa | - | - | - | - |
| 1777817863 | 15.56° C | 38% | 1012.2 hPa | - | - | - | - |
| 1777813364 | 17.22° C | 33% | 1012.7 hPa | - | - | - | - |
| 1777812464 | 19.44° C | 32% | 1012.8 hPa | - | - | - | - |
| 1777807063 | 16.67° C | 34% | 1013.7 hPa | - | - | - | - |
| 1777805263 | 17.78° C | 33% | 1013.9 hPa | - | - | - | - |
| 1777804363 | 17.78° C | 33% | 1014.2 hPa | - | - | - | - |
| 1777800761 | 17.78° C | 34% | 1014.4 hPa | - | - | - | - |
| 1777799861 | 16.67° C | 35% | 1014.5 hPa | - | - | - | - |
| 1777798961 | 15° C | 39% | 1014.5 hPa | - | - | - | - |
| 1777798061 | 15° C | 38% | 1014.7 hPa | - | - | - | - |
| 1777797161 | 18.89° C | 31% | 1014.8 hPa | - | - | - | - |
| 1777796261 | 18.89° C | 34% | 1014.9 hPa | - | - | - | - |
| 1777794463 | 19.44° C | 32% | 1015.1 hPa | - | - | - | - |
| 1777793563 | 16.11° C | 38% | 1015.4 hPa | - | - | - | - |
| 1777792663 | 15° C | 39% | 1015.5 hPa | - | - | - | - |
| 1777791763 | 15° C | 40% | 1015.5 hPa | - | - | - | - |
| 1777790863 | 17.22° C | 39% | 1015.6 hPa | - | - | - | - |
| 1777789963 | 17.22° C | 40% | 1015.5 hPa | - | - | - | - |
| 1777789063 | 16.67° C | 41% | 1015.6 hPa | - | - | - | - |
| 1777788162 | 15.56° C | 45% | 1015.6 hPa | - | - | - | - |
| 1777787262 | 13.89° C | 47% | 1015.5 hPa | - | - | - | - |
| 1777786362 | 13.89° C | 51% | 1015.7 hPa | - | - | - | - |
| 1777785462 | 13.33° C | 54% | 1015.7 hPa | - | - | - | - |
| 1777784562 | 13.33° C | 53% | 1015.8 hPa | - | - | - | - |
* Rain since midnight (hover to see other rain measurements)
** Current wind speed in m/s (hover to see current wind gust speed)